createdAt,value
2023-05-18T00:02:16.149Z,46.45
2023-05-18T00:04:43.155Z,46.51
2023-05-18T00:07:11.442Z,46.63
2023-05-18T00:09:37.844Z,46.20
2023-05-18T00:12:05.995Z,46.57
2023-05-18T00:14:32.537Z,46.36
2023-05-18T00:17:01.762Z,46.73
2023-05-18T00:19:29.810Z,46.41
2023-05-18T00:21:58.177Z,46.83
2023-05-18T00:24:24.682Z,46.48
2023-05-18T00:26:52.281Z,46.65
2023-05-18T00:29:18.946Z,46.36
2023-05-18T00:31:46.893Z,46.54
2023-05-18T00:34:14.847Z,46.54
2023-05-18T00:36:43.015Z,47.00
2023-05-18T00:39:09.637Z,46.51
2023-05-18T00:41:37.715Z,47.04
2023-05-18T00:44:04.986Z,46.95
2023-05-18T00:46:33.470Z,47.17
2023-05-18T00:49:03.585Z,46.99
2023-05-18T00:51:32.845Z,47.34
2023-05-18T00:54:00.427Z,46.69
2023-05-18T00:56:28.418Z,46.69
2023-05-18T00:58:57.074Z,46.89
2023-05-18T01:01:28.868Z,47.54
2023-05-18T01:03:56.692Z,46.84
2023-05-18T01:06:26.467Z,46.85
2023-05-18T01:08:54.694Z,47.12
2023-05-18T01:11:47.627Z,47.83
2023-05-18T01:14:30.627Z,47.87
2023-05-18T01:17:03.671Z,46.82
2023-05-18T01:19:53.589Z,47.35
2023-05-18T01:22:26.489Z,48.03
2023-05-18T01:25:04.752Z,47.94
2023-05-18T01:27:37.676Z,47.58
2023-05-18T01:30:08.521Z,48.12
2023-05-18T01:32:42.650Z,47.84
2023-05-18T01:35:09.608Z,47.30
2023-05-18T01:37:36.132Z,47.38
2023-05-18T01:40:05.129Z,47.38
2023-05-18T01:42:36.298Z,47.55
2023-05-18T01:45:08.952Z,47.93
2023-05-18T01:47:40.132Z,48.25
2023-05-18T01:50:13.869Z,48.74
2023-05-18T01:52:54.294Z,48.44
2023-05-18T01:55:23.434Z,47.97
2023-05-18T01:57:52.723Z,47.90
2023-05-18T02:00:20.218Z,47.98
2023-05-18T02:02:46.863Z,47.67
2023-05-18T02:05:13.524Z,47.98
2023-05-18T02:07:40.840Z,47.82
2023-05-18T02:10:08.149Z,47.98
2023-05-18T02:12:34.794Z,48.19
2023-05-18T02:15:05.486Z,47.89
2023-05-18T02:17:39.191Z,48.20
2023-05-18T02:20:07.376Z,48.10
2023-05-18T02:22:34.588Z,48.40
2023-05-18T02:25:01.377Z,48.09
2023-05-18T02:27:28.271Z,48.01
2023-05-18T02:29:54.904Z,48.41
2023-05-18T02:32:21.557Z,48.57
2023-05-18T02:34:52.822Z,49.15
2023-05-18T02:37:19.649Z,48.69
2023-05-18T02:39:46.218Z,48.85
2023-05-18T02:42:13.757Z,48.77
2023-05-18T02:44:42.075Z,48.37
2023-05-18T02:47:08.729Z,48.59
2023-05-18T02:49:35.435Z,48.58
2023-05-18T02:52:02.116Z,48.33
2023-05-18T02:54:28.722Z,48.33
2023-05-18T02:56:57.085Z,48.56
2023-05-18T02:59:23.775Z,48.62
2023-05-18T03:01:50.761Z,48.50
2023-05-18T03:04:17.635Z,48.89
2023-05-18T03:06:46.664Z,49.04
2023-05-18T03:09:13.527Z,49.03
2023-05-18T03:11:40.068Z,49.14
2023-05-18T03:14:06.690Z,49.30
2023-05-18T03:16:33.887Z,49.18
2023-05-18T03:19:02.311Z,49.49
2023-05-18T03:21:33.638Z,49.11
2023-05-18T03:24:00.700Z,49.35
2023-05-18T03:26:30.888Z,49.17
2023-05-18T03:28:58.262Z,49.15
2023-05-18T03:31:25.901Z,49.06
2023-05-18T03:33:52.709Z,49.11
2023-05-18T03:36:22.385Z,49.00
2023-05-18T03:38:49.085Z,49.14
2023-05-18T03:41:15.696Z,49.35
2023-05-18T03:43:42.380Z,49.21
2023-05-18T03:46:09.052Z,49.40
2023-05-18T03:48:36.845Z,49.51
2023-05-18T03:51:03.513Z,49.56
2023-05-18T03:53:30.156Z,49.52
2023-05-18T03:55:56.979Z,49.69
2023-05-18T03:58:23.701Z,50.03
2023-05-18T04:00:50.393Z,49.99
2023-05-18T04:03:17.252Z,49.81
2023-05-18T04:05:44.958Z,50.52
2023-05-18T04:08:14.568Z,50.10
2023-05-18T04:10:44.976Z,50.77
2023-05-18T04:13:12.205Z,50.06
2023-05-18T04:15:38.759Z,50.06
2023-05-18T04:18:05.595Z,50.35
2023-05-18T04:20:32.355Z,50.24
2023-05-18T04:22:59.094Z,50.30
2023-05-18T04:25:28.086Z,50.35
2023-05-18T04:27:56.142Z,50.65
2023-05-18T04:30:23.477Z,50.37
2023-05-18T04:32:51.010Z,50.54
2023-05-18T04:35:18.726Z,50.67
2023-05-18T04:37:45.717Z,50.81
2023-05-18T04:40:13.916Z,50.83
2023-05-18T04:42:48.840Z,50.89
2023-05-18T04:45:17.844Z,51.07
2023-05-18T04:47:46.590Z,50.92
2023-05-18T04:50:17.606Z,51.68
2023-05-18T04:52:48.581Z,50.86
2023-05-18T04:55:20.160Z,51.17
2023-05-18T04:57:47.759Z,50.94
2023-05-18T05:00:15.183Z,50.90
2023-05-18T05:02:41.908Z,51.09
2023-05-18T05:05:08.970Z,51.08
2023-05-18T05:07:35.678Z,51.29
2023-05-18T05:10:02.677Z,51.50
2023-05-18T05:12:29.530Z,51.57
2023-05-18T05:14:56.332Z,51.77
2023-05-18T05:17:23.591Z,51.45
2023-05-18T05:19:50.123Z,51.84
2023-05-18T05:22:17.946Z,51.65
2023-05-18T05:24:44.583Z,51.57
2023-05-18T05:27:11.241Z,51.78
2023-05-18T05:29:37.860Z,51.67
2023-05-18T05:32:05.267Z,51.79
2023-05-18T05:34:31.936Z,51.98
2023-05-18T05:36:58.482Z,52.16
2023-05-18T05:39:25.037Z,51.94
2023-05-18T05:41:51.666Z,52.03
2023-05-18T05:44:18.185Z,51.83
2023-05-18T05:46:44.894Z,51.67
2023-05-18T05:49:11.888Z,51.30
2023-05-18T05:51:38.403Z,51.31
2023-05-18T05:54:05.102Z,51.04
2023-05-18T05:56:31.559Z,51.06
2023-05-18T05:58:58.165Z,51.16
2023-05-18T06:01:24.774Z,51.06
2023-05-18T06:03:52.008Z,51.29
2023-05-18T06:06:18.524Z,51.25
2023-05-18T06:08:45.234Z,51.08
2023-05-18T06:11:12.081Z,51.02
2023-05-18T06:13:38.963Z,50.89
2023-05-18T06:16:05.879Z,50.46
2023-05-18T06:18:32.624Z,50.40
2023-05-18T06:20:59.190Z,50.44
2023-05-18T06:23:25.890Z,50.56
2023-05-18T06:25:53.321Z,50.69
2023-05-18T06:28:20.035Z,50.33
2023-05-18T06:30:46.850Z,49.89
2023-05-18T06:33:14.507Z,49.92
2023-05-18T06:35:41.266Z,50.32
2023-05-18T06:38:08.631Z,50.26
2023-05-18T06:40:35.329Z,50.44
2023-05-18T06:43:01.970Z,50.08
2023-05-18T06:45:28.790Z,49.75
2023-05-18T06:47:55.714Z,50.05
2023-05-18T07:21:43.496Z,48.82
2023-05-18T07:24:10.045Z,48.23
2023-05-18T07:26:36.700Z,48.44
2023-05-18T07:29:03.340Z,48.12
2023-05-18T07:31:42.176Z,47.49
2023-05-18T07:34:08.782Z,47.72
2023-05-18T07:36:35.362Z,47.57
2023-05-18T07:39:02.034Z,47.65
2023-05-18T07:41:28.621Z,47.53
2023-05-18T07:43:55.169Z,47.28
2023-05-18T07:46:21.798Z,47.29
2023-05-18T07:48:48.297Z,47.14
2023-05-18T07:51:14.957Z,47.05
2023-05-18T07:53:52.085Z,47.05
2023-05-18T07:56:18.814Z,47.29
2023-05-18T07:58:45.438Z,47.01
2023-05-18T08:01:12.007Z,47.04
2023-05-18T08:03:38.759Z,47.15
2023-05-18T08:06:05.667Z,47.01
2023-05-18T08:08:32.237Z,46.94
2023-05-18T08:13:39.914Z,46.42
2023-05-18T08:16:11.645Z,46.17
2023-05-18T08:21:29.569Z,45.95
2023-05-18T08:23:56.348Z,45.94
2023-05-18T08:26:22.932Z,45.60
2023-05-18T08:28:49.786Z,45.44
2023-05-18T08:31:22.715Z,45.03
2023-05-18T08:33:50.107Z,45.48
2023-05-18T08:36:25.781Z,44.51
2023-05-18T08:38:53.687Z,44.51
2023-05-18T08:41:26.705Z,44.36
2023-05-18T08:44:19.608Z,44.56
2023-05-18T08:46:51.055Z,43.99
2023-05-18T08:49:19.089Z,44.66
2023-05-18T08:51:56.843Z,44.38
2023-05-18T09:00:27.165Z,44.77
2023-05-18T09:03:06.178Z,44.16
2023-05-18T09:09:06.767Z,43.91
2023-05-18T09:14:40.915Z,44.07
2023-05-18T09:18:11.796Z,44.15
2023-05-18T09:20:57.467Z,44.14
2023-05-18T09:25:17.549Z,43.83
2023-05-18T09:27:17.079Z,43.76
2023-05-18T09:30:28.156Z,42.90
2023-05-18T09:33:23.808Z,43.26
2023-05-18T09:35:57.236Z,43.07
2023-05-18T09:38:29.162Z,42.96
2023-05-18T09:42:05.306Z,43.19
2023-05-18T09:53:40.942Z,43.15
2023-05-18T10:04:51.193Z,42.70
2023-05-18T10:10:30.407Z,42.76
2023-05-18T10:20:00.507Z,42.57
2023-05-18T10:22:30.987Z,42.78
2023-05-18T10:41:18.577Z,42.33
2023-05-18T10:43:46.386Z,43.50
2023-05-18T10:46:17.038Z,42.60
2023-05-18T10:48:51.519Z,42.20
2023-05-18T10:52:22.521Z,43.08
2023-05-18T10:58:05.752Z,39.73
2023-05-18T11:00:40.578Z,41.26
2023-05-18T11:03:32.635Z,40.06
2023-05-18T11:06:31.634Z,38.15
2023-05-18T11:09:27.889Z,37.94
2023-05-18T11:12:09.946Z,36.96
2023-05-18T11:18:43.685Z,36.13
2023-05-18T11:25:29.320Z,34.99
2023-05-18T11:28:39.174Z,32.60
2023-05-18T11:35:14.724Z,34.31
2023-05-18T11:43:46.551Z,32.07
2023-05-18T11:50:25.433Z,30.96
2023-05-18T11:56:50.927Z,31.16
2023-05-18T12:00:11.162Z,32.13
2023-05-18T12:06:01.402Z,30.62
2023-05-18T12:11:46.254Z,30.52
2023-05-18T12:18:00.424Z,29.19
2023-05-18T12:21:12.832Z,29.00
2023-05-18T12:27:15.676Z,29.18
2023-05-18T12:31:49.616Z,29.34
2023-05-18T12:35:07.919Z,29.21
2023-05-18T12:38:19.781Z,28.02
2023-05-18T12:44:48.010Z,26.40
2023-05-18T12:47:33.504Z,26.73
2023-05-18T12:52:29.196Z,26.76
2023-05-18T12:55:00.634Z,28.04
2023-05-18T12:57:28.023Z,27.22
2023-05-18T12:59:54.739Z,26.23
2023-05-18T13:02:32.617Z,25.20
2023-05-18T13:05:05.294Z,24.63
2023-05-18T13:07:31.997Z,24.82
2023-05-18T13:10:05.591Z,23.77
2023-05-18T13:12:37.910Z,24.05
2023-05-18T13:15:12.351Z,25.14
2023-05-18T13:17:39.107Z,24.39
2023-05-18T13:20:15.607Z,24.08
2023-05-18T13:22:43.592Z,24.49
2023-05-18T13:25:10.552Z,23.71
2023-05-18T13:27:38.166Z,24.39
2023-05-18T13:30:05.216Z,24.72
2023-05-18T13:32:31.703Z,24.39
2023-05-18T13:34:58.191Z,23.53
2023-05-18T13:37:24.825Z,23.05
2023-05-18T13:39:51.389Z,23.46
2023-05-18T13:42:21.100Z,23.36
2023-05-18T13:44:48.103Z,23.18
2023-05-18T13:47:14.494Z,22.85
2023-05-18T13:49:40.905Z,22.79
2023-05-18T13:52:07.326Z,22.38
2023-05-18T13:54:33.737Z,22.93
2023-05-18T13:57:00.160Z,22.48
2023-05-18T13:59:27.533Z,22.49
2023-05-18T14:01:53.969Z,22.77
2023-05-18T14:04:20.392Z,22.38
2023-05-18T14:06:46.778Z,22.68
2023-05-18T14:09:13.260Z,22.49
2023-05-18T14:11:39.737Z,22.33
2023-05-18T14:14:06.539Z,22.54
2023-05-18T14:16:33.091Z,22.07
2023-05-18T14:18:59.550Z,22.13
2023-05-18T14:21:25.983Z,21.46
2023-05-18T14:23:52.420Z,21.56
2023-05-18T14:26:18.988Z,21.42
2023-05-18T14:28:46.226Z,21.39
2023-05-18T14:31:12.769Z,21.42
2023-05-18T14:33:39.257Z,21.01
2023-05-18T14:36:05.897Z,20.96
2023-05-18T14:38:32.448Z,20.68
2023-05-18T14:40:58.934Z,20.68
2023-05-18T14:43:25.362Z,20.61
2023-05-18T14:46:06.894Z,21.10
2023-05-18T14:48:34.786Z,22.98
2023-05-18T14:51:01.181Z,20.87
2023-05-18T14:53:27.515Z,20.23
2023-05-18T14:55:53.964Z,20.66
2023-05-18T14:58:20.694Z,20.66
2023-05-18T15:00:47.090Z,20.87
2023-05-18T15:03:13.685Z,20.79
2023-05-18T15:05:40.313Z,20.81
2023-05-18T15:08:06.742Z,20.92
2023-05-18T15:10:33.404Z,21.00
2023-05-18T15:12:59.888Z,20.13
2023-05-18T15:15:26.736Z,20.17
2023-05-18T15:17:53.479Z,19.89
2023-05-18T15:20:20.011Z,19.88
2023-05-18T15:22:46.549Z,20.04
2023-05-18T15:25:12.971Z,21.27
2023-05-18T15:27:39.426Z,20.89
2023-05-18T15:30:11.243Z,19.99
2023-05-18T15:32:38.577Z,20.58
2023-05-18T15:35:06.091Z,19.79
2023-05-18T15:37:32.748Z,19.90
2023-05-18T15:39:59.481Z,19.65
2023-05-18T15:42:26.309Z,20.06
2023-05-18T15:44:52.752Z,19.93
2023-05-18T15:47:19.171Z,20.27
2023-05-18T15:49:45.644Z,19.78
2023-05-18T15:52:12.121Z,20.20
2023-05-18T15:54:38.829Z,20.54
2023-05-18T15:57:05.518Z,20.56
2023-05-18T15:59:31.932Z,20.33
2023-05-18T16:01:58.391Z,19.93
2023-05-18T16:04:24.805Z,19.87
2023-05-18T16:06:51.268Z,19.80
2023-05-18T16:09:17.682Z,19.56
2023-05-18T16:11:44.167Z,20.25
2023-05-18T16:14:10.698Z,19.53
2023-05-18T16:16:37.252Z,19.47
2023-05-18T16:19:05.397Z,19.25
2023-05-18T16:21:31.990Z,19.75
2023-05-18T16:23:58.850Z,19.36
2023-05-18T16:26:26.222Z,19.63
2023-05-18T16:28:52.636Z,19.44
2023-05-18T16:31:19.213Z,19.48
2023-05-18T16:33:45.694Z,20.68
2023-05-18T16:36:12.420Z,20.36
2023-05-18T16:38:39.200Z,20.18
2023-05-18T16:41:06.402Z,20.09
2023-05-18T16:43:33.487Z,20.29
2023-05-18T16:46:00.015Z,20.67
2023-05-18T16:48:26.470Z,21.08
2023-05-18T16:50:55.002Z,21.16
2023-05-18T16:53:21.419Z,21.54
2023-05-18T16:55:48.357Z,21.66
2023-05-18T16:58:14.842Z,21.76
2023-05-18T17:00:41.302Z,22.22
2023-05-18T17:03:07.868Z,22.87
2023-05-18T17:05:35.310Z,22.59
2023-05-18T17:08:01.755Z,23.28
2023-05-18T17:10:28.172Z,23.59
2023-05-18T17:12:55.180Z,23.89
2023-05-18T17:15:21.716Z,24.09
2023-05-18T17:17:48.230Z,23.98
2023-05-18T17:20:15.065Z,24.37
2023-05-18T17:22:41.497Z,24.53
2023-05-18T17:25:08.436Z,24.66
2023-05-18T17:27:34.876Z,25.82
2023-05-18T17:30:01.302Z,25.82
2023-05-18T17:32:27.832Z,26.28
2023-05-18T17:34:54.241Z,26.16
2023-05-18T17:37:20.717Z,26.13
2023-05-18T17:39:47.208Z,26.45
2023-05-18T17:42:13.675Z,26.49
2023-05-18T17:44:40.349Z,26.69
2023-05-18T17:47:07.018Z,26.90
2023-05-18T17:49:34.100Z,27.07
2023-05-18T17:52:00.596Z,27.13
2023-05-18T17:54:27.104Z,27.38
2023-05-18T17:56:53.589Z,27.46
2023-05-18T17:59:19.992Z,27.76
2023-05-18T18:01:46.480Z,27.82
2023-05-18T18:04:13.137Z,28.61
2023-05-18T18:06:39.702Z,28.58
2023-05-18T18:09:06.537Z,28.46
2023-05-18T18:11:33.118Z,28.78
2023-05-18T18:13:59.896Z,28.89
2023-05-18T18:16:26.504Z,28.70
2023-05-18T18:18:53.136Z,29.09
2023-05-18T18:21:19.650Z,29.24
2023-05-18T18:23:46.115Z,29.65
2023-05-18T18:26:12.648Z,29.58
2023-05-18T18:28:39.303Z,29.23
2023-05-18T18:31:05.797Z,29.41
2023-05-18T18:33:34.803Z,29.70
2023-05-18T18:36:02.156Z,29.81
2023-05-18T18:38:28.925Z,29.95
2023-05-18T18:41:01.573Z,30.08
2023-05-18T18:43:28.600Z,30.08
2023-05-18T18:45:56.871Z,30.43
2023-05-18T18:48:23.763Z,30.86
2023-05-18T18:50:50.519Z,31.16
2023-05-18T18:53:17.269Z,30.94
2023-05-18T18:55:43.764Z,30.94
2023-05-18T18:58:10.319Z,31.03
2023-05-18T19:00:36.987Z,30.98
2023-05-18T19:03:04.083Z,31.37
2023-05-18T19:05:31.738Z,31.46
2023-05-18T19:07:58.627Z,31.71
2023-05-18T19:10:25.520Z,32.04
2023-05-18T19:12:52.959Z,31.75
2023-05-18T19:15:21.246Z,31.81
2023-05-18T19:17:52.211Z,31.75
2023-05-18T19:20:19.086Z,31.89
2023-05-18T19:22:45.736Z,32.67
2023-05-18T19:25:12.292Z,33.04
2023-05-18T19:27:38.860Z,32.72
2023-05-18T19:30:07.226Z,32.78
2023-05-18T19:32:33.921Z,32.87
2023-05-18T19:35:00.503Z,32.69
2023-05-18T19:37:26.988Z,33.10
2023-05-18T19:39:53.598Z,33.08
2023-05-18T19:42:20.126Z,33.16
2023-05-18T19:44:46.605Z,33.47
2023-05-18T19:47:13.133Z,33.01
2023-05-18T19:49:39.704Z,33.81
2023-05-18T19:52:08.341Z,33.71
2023-05-18T19:54:38.324Z,33.58
2023-05-18T19:57:05.144Z,33.98
2023-05-18T19:59:31.758Z,34.08
2023-05-18T20:01:59.326Z,34.11
2023-05-18T20:04:28.373Z,33.83
2023-05-18T20:06:59.288Z,34.74
2023-05-18T20:09:26.415Z,34.55
2023-05-18T20:11:54.298Z,34.73
2023-05-18T20:14:21.241Z,35.21
2023-05-18T20:16:48.596Z,34.68
2023-05-18T20:19:17.743Z,34.68
2023-05-18T20:21:47.618Z,34.56
2023-05-18T20:24:14.279Z,34.33
2023-05-18T20:26:40.916Z,34.77
2023-05-18T20:29:07.630Z,34.61
2023-05-18T20:31:34.205Z,35.20
2023-05-18T20:34:00.852Z,35.21
2023-05-18T20:36:27.456Z,35.67
2023-05-18T20:38:54.334Z,35.46
2023-05-18T20:41:20.919Z,35.65
2023-05-18T20:43:50.219Z,35.83
2023-05-18T20:46:17.051Z,35.92
2023-05-18T20:48:44.750Z,35.88
2023-05-18T20:51:17.566Z,35.46
2023-05-18T20:53:44.893Z,35.76
2023-05-18T20:56:12.397Z,35.64
2023-05-18T20:58:42.534Z,35.86
2023-05-18T21:01:10.734Z,36.16
2023-05-18T21:03:38.441Z,35.68
2023-05-18T21:06:05.306Z,35.70
2023-05-18T21:08:32.421Z,36.22
2023-05-18T21:10:58.865Z,36.17
2023-05-18T21:13:25.447Z,36.51
2023-05-18T21:15:52.096Z,36.44
2023-05-18T21:18:18.675Z,36.23
2023-05-18T21:20:45.206Z,36.39
2023-05-18T21:23:11.688Z,36.57
2023-05-18T21:25:38.485Z,36.47
2023-05-18T21:28:05.129Z,36.98
2023-05-18T21:30:32.304Z,36.52
2023-05-18T21:32:59.134Z,37.17
2023-05-18T21:35:27.136Z,37.53
2023-05-18T21:37:53.633Z,37.89
2023-05-18T21:40:20.117Z,38.07
2023-05-18T21:42:47.187Z,38.00
2023-05-18T21:45:13.901Z,38.13
2023-05-18T21:47:40.717Z,38.18
2023-05-18T21:50:07.845Z,38.58
2023-05-18T21:52:34.377Z,38.76
2023-05-18T21:55:00.911Z,38.68
2023-05-18T21:57:27.405Z,39.32
2023-05-18T21:59:53.880Z,39.18
2023-05-18T22:02:20.399Z,39.63
2023-05-18T22:04:46.905Z,39.85
2023-05-18T22:07:14.686Z,40.26
2023-05-18T22:09:41.167Z,40.35
2023-05-18T22:12:07.808Z,40.75
2023-05-18T22:14:34.346Z,40.64
2023-05-18T22:17:02.231Z,40.92
2023-05-18T22:19:28.943Z,40.69
2023-05-18T22:21:55.683Z,40.63
2023-05-18T22:24:22.243Z,40.96
2023-05-18T22:26:48.776Z,41.40
2023-05-18T22:29:15.448Z,41.24
2023-05-18T22:31:41.999Z,41.24
2023-05-18T22:34:08.725Z,41.43
2023-05-18T22:36:35.367Z,41.73
2023-05-18T22:39:01.900Z,42.02
2023-05-18T22:41:28.371Z,42.41
2023-05-18T22:43:55.061Z,42.20
2023-05-18T22:46:21.885Z,42.47
2023-05-18T22:48:48.372Z,42.65
2023-05-18T22:51:15.608Z,42.73
2023-05-18T22:53:42.214Z,42.91
2023-05-18T22:56:08.740Z,43.07
2023-05-18T22:58:35.288Z,43.20
2023-05-18T23:01:02.013Z,43.30
2023-05-18T23:03:28.614Z,43.53
2023-05-18T23:05:55.230Z,43.48
2023-05-18T23:08:21.676Z,43.46
2023-05-18T23:10:48.291Z,44.10
2023-05-18T23:13:16.200Z,44.25
2023-05-18T23:15:42.880Z,44.20
2023-05-18T23:18:10.207Z,44.22
2023-05-18T23:20:38.587Z,44.38
2023-05-18T23:23:05.309Z,44.48
2023-05-18T23:25:31.979Z,44.64
2023-05-18T23:27:58.719Z,44.62
2023-05-18T23:30:25.339Z,45.18
2023-05-18T23:32:53.078Z,45.01
2023-05-18T23:35:20.107Z,45.43
2023-05-18T23:37:50.087Z,46.40
2023-05-18T23:40:19.277Z,45.68
2023-05-18T23:42:46.383Z,45.71
2023-05-18T23:45:13.894Z,45.71
2023-05-18T23:47:40.887Z,45.80
2023-05-18T23:50:08.186Z,46.13
2023-05-18T23:52:36.192Z,46.24
2023-05-18T23:55:04.036Z,46.44
2023-05-18T23:57:31.653Z,46.25
2023-05-18T23:59:58.476Z,46.20
